Estación Meteorológica Peña el Pijo (Robertgarden) [ 01/30/23 14:46:50 CET ]

Fecha Hora Presion(HPa) Temp (°C) Humedad % Rocio (°C) Viento ( m/s) Direccion Lluvia 1Hora(mm) Lluvia 24H(mm) LLuvia Total(mm)
2012-Sep-10 01:01:16 1013.000 14.1 69 8.5         178.19
2012-Sep-10 02:01:17 1013.000 13.5 72 8.5         178.19
2012-Sep-10 03:07:03 1012.600 12.6 76 8.5         178.19
2012-Sep-10 04:01:16 1012.100 12.1 78 8.4         178.19
2012-Sep-10 05:01:17 1011.800 11.4 80 8.1         178.19
2012-Sep-10 06:01:13 1011.900 10.8 81 7.7         178.19
2012-Sep-10 07:01:12 1011.600 10.4 82 7.4         178.19
2012-Sep-10 08:01:17 1012.000 10.1 83 7.3         178.19
2012-Sep-10 09:01:21 1012.400 12.1 85 9.6         178.19
2012-Sep-10 10:01:16 1012.300 19.9 61 12.1         178.19
2012-Sep-10 11:01:14 1012.300 22.7 50 11.7         178.19
2012-Sep-10 12:01:14 1012.200 25.3 42 11.4         178.19
2012-Sep-10 13:01:17 1011.600 28.2 34 10.7         178.19
2012-Sep-10 14:01:15 1011.500 29.8 29 9.8         178.19
2012-Sep-10 15:01:12 1011.000 30.2 30 10.8 2.9 NE     178.19
2012-Sep-10 16:01:13 1010.800 27.4 34 10.1 2.6 NE     178.19
2012-Sep-10 17:01:13 1010.800 26.3 38 10.8         178.19
2012-Sep-10 18:01:16 1010.500 29.1 33 11.1         178.19
2012-Sep-10 19:01:12 1011.000 25.8 38 10.4         178.19
2012-Sep-10 20:01:21 1011.100 23.6 46 11.2 3.2 NE     178.19
2012-Sep-10 21:01:13 1011.600 21.3 54 11.6         178.19
2012-Sep-10 22:01:12 1012.700 18.5 61 10.8         178.19
2012-Sep-10 23:01:12 1013.200 16.8 68 10.9         178.19

Temperatura Máxima:30°    Temperatura Mínima:10°
Presión Máxima:1013.200 Hpa    Presión Mínima:1010.500 Hpa


Volver